Moose, WY

5:59 AM MDT on August 28, 2014 (GMT -0600)
Rexburg-Madison County | Change Station
CLOSE
Current Station
Airport
Location: Rexburg,
Elevation: 4859 ft
Nearby Weather Stations

Elev 4859 ft 43.83 °N, 111.81 °W | Updated 6 minutes ago

Clear
Clear
47 °F
Feels Like 47 °F
N
4
Wind Variable Wind from East

Today
High -- | Low -- °F
--% Chance of Precip.
Yesterday
High -- | Low -- °F
Precip. -- in
6:42 AM 8:05 PM
Waxing Crescent, 8% visible
Pressure 30.13 in
Visibility 10.0 miles
Clouds Clear
Dew Point 44 °F
Humidity 90%
Rainfall 0.00 in
Snow Depth Not available.
UV 0 out of 12
Pollen 8.60 out of 12
Air Quality Not available.
Flu Activity Not available.
METAR KRXE 281153Z AUTO 08003KT 10SM CLR 08/07 A3022 RMK AO2 SLP201 T00830067 10167 20083 53007

More Conditions Fewer Conditions

Pressure 30.13 in
Visibility 10.0 miles
Clouds Clear
Dew Point 44 °F
Humidity 90%
Rainfall 0.00 in
Snow Depth Not available.
UV 0 out of 12
Pollen 8.60 out of 12
Air Quality Not available.
Flu Activity Not available.
METAR KRXE 281153Z AUTO 08003KT 10SM CLR 08/07 A3022 RMK AO2 SLP201 T00830067 10167 20083 53007

More Conditions Fewer Conditions

10-Day Weather Forecast

Almanac

Astronomy

Aug. 28, 2014 Rise Set
Actual Time 6:42 AM MDT 8:05 PM MDT
Civil Twilight 6:12 AM MDT 8:35 PM MDT
Nautical Twilight 5:36 AM MDT 9:11 PM MDT
Astronomical Twilight 4:57 AM MDT 9:49 PM MDT
Moon 9:45 AM MDT 9:23 PM MDT
Length of Visible Light 14h 23m
Length of Day
13h 23m
Tomorrow will be 2m 52s shorter.
Waxing Crescent, 8% of the Moon is Illuminated
Today
Waxing Crescent
Sep 2
First Quarter
Sep 8
Full
Sep 15
Last Quarter
Sep 24
New

Today's Extremes

State Highs State Lows

Community

WunderPhotos

Upload Photos

1,747,929 photos uploaded!

Nearby

Snow Depth

Station Depth Elevation
Base Camp 0 in 7030 ft
Phillips Bench 0 in 8200 ft
Lewis Lake Divide 0 in 7850 ft
Granite Creek 0 in 6770 ft
Gros Ventre Summit 1 in 8750 ft

Earthquake Activity

City Distance Mag. Time & Date
No recent earthquake activity has been reported nearby.
Minimum magnitude displayed is 2.5.

Coastal Water Temperatures

Place Temperature
No Stations Reporting

Nearby Weather Stations